Time;durP1;ratioP1;P1;durP2;ratioP2;P2;SDS_P1;SDS_P2;PMS_P1;PMS_P2;Temp;Humidity;BMP_temperature;BMP_pressure;BME280_temperature;BME280_humidity;BME280_pressure;Samples;Min_cycle;Max_cycle;Signal;HPM_P1;HPM_P2
2021/01/09 00:01:45;;;;;;;19.05;9.25;;;1.40;99.90;;;;;;12288719;28;20079;-88
2021/01/09 00:07:46;;;;;;;14.45;8.90;;;1.40;99.90;;;;;;12286366;28;20079;-87
2021/01/09 00:13:48;;;;;;;16.02;8.73;;;1.30;99.90;;;;;;12295340;28;20078;-88
2021/01/09 00:19:49;;;;;;;13.23;8.05;;;1.20;99.90;;;;;;12285817;28;20055;-88
2021/01/09 00:25:51;;;;;;;14.13;8.55;;;1.20;99.90;;;;;;12305794;28;20051;-88
2021/01/09 00:31:53;;;;;;;18.17;8.95;;;1.20;99.90;;;;;;12278366;28;20046;-88
2021/01/09 00:37:54;;;;;;;15.23;8.40;;;1.10;99.90;;;;;;12290245;28;20047;-87
2021/01/09 00:43:56;;;;;;;15.02;8.90;;;1.20;99.90;;;;;;12287432;28;20058;-88
2021/01/09 00:49:58;;;;;;;17.65;10.43;;;1.10;99.90;;;;;;12311021;28;20075;-87
2021/01/09 00:55:59;;;;;;;14.20;9.10;;;1.10;99.90;;;;;;12296793;28;20138;-88
2021/01/09 01:02:00;;;;;;;13.95;8.38;;;1.00;99.90;;;;;;12285028;28;20138;-87
2021/01/09 01:08:02;;;;;;;13.65;9.02;;;1.00;99.90;;;;;;12280721;28;20051;-87
2021/01/09 01:14:04;;;;;;;12.60;8.80;;;1.10;99.90;;;;;;12286215;28;20050;-87
2021/01/09 01:20:06;;;;;;;14.13;9.30;;;1.10;99.90;;;;;;12278438;28;20289;-87
2021/01/09 01:26:09;;;;;;;14.80;9.35;;;1.00;99.90;;;;;;12290339;28;20138;-88
2021/01/09 01:32:10;;;;;;;15.85;9.70;;;1.00;99.90;;;;;;12281301;28;20055;-87
2021/01/09 01:38:13;;;;;;;13.15;8.52;;;0.90;99.90;;;;;;12278789;28;20513;-87
2021/01/09 01:44:15;;;;;;;15.85;9.80;;;0.70;99.90;;;;;;12278447;28;20781;-87
2021/01/09 01:50:16;;;;;;;16.83;10.32;;;0.90;99.90;;;;;;12303017;28;20103;-87
2021/01/09 01:56:17;;;;;;;16.38;10.85;;;1.00;99.90;;;;;;12320608;28;20138;-87
2021/01/09 02:02:20;;;;;;;17.20;9.93;;;1.00;99.90;;;;;;12292903;28;20596;-88
2021/01/09 02:08:27;;;;;;;15.90;9.98;;;0.80;99.90;;;;;;12299329;28;20525;-86
2021/01/09 02:14:37;;;;;;;18.77;12.00;;;0.80;99.90;;;;;;12290720;28;20050;-87
2021/01/09 02:20:41;;;;;;;19.23;12.32;;;0.80;99.90;;;;;;12299146;28;20065;-87
2021/01/09 02:26:42;;;;;;;19.40;11.93;;;0.80;99.90;;;;;;12294013;28;20929;-86
2021/01/09 02:33:04;;;;;;;20.80;11.80;;;0.80;99.90;;;;;;12292463;28;20170;-87
2021/01/09 02:39:05;;;;;;;15.95;11.13;;;0.70;99.90;;;;;;12305090;28;20051;-87
2021/01/09 02:45:08;;;;;;;19.42;13.15;;;0.60;99.90;;;;;;12294730;28;20527;-87
2021/01/09 02:51:09;;;;;;;20.63;14.43;;;0.70;99.90;;;;;;12286702;28;20521;-87
2021/01/09 02:57:10;;;;;;;20.15;14.02;;;0.50;99.90;;;;;;12318873;28;20438;-87
2021/01/09 03:03:13;;;;;;;19.35;13.23;;;0.50;99.90;;;;;;12300145;28;20116;-86
2021/01/09 03:09:14;;;;;;;21.48;13.00;;;0.50;99.90;;;;;;12289559;28;20086;-87
2021/01/09 03:15:15;;;;;;;22.20;12.85;;;0.40;99.90;;;;;;12291510;28;20073;-87
2021/01/09 03:21:17;;;;;;;19.77;13.80;;;0.30;99.90;;;;;;12303158;28;20043;-87
2021/01/09 03:27:18;;;;;;;21.13;13.13;;;0.20;99.90;;;;;;12278618;28;20082;-87
2021/01/09 03:33:19;;;;;;;21.92;14.02;;;0.20;99.90;;;;;;12288513;28;20126;-87
2021/01/09 03:39:21;;;;;;;22.13;14.63;;;0.30;99.90;;;;;;12310129;28;20502;-86
2021/01/09 03:45:22;;;;;;;23.60;14.90;;;0.40;99.90;;;;;;12279902;28;20136;-88
2021/01/09 03:51:23;;;;;;;21.38;13.88;;;0.30;99.90;;;;;;12296908;28;20213;-87
2021/01/09 03:57:25;;;;;;;23.00;14.32;;;0.40;99.90;;;;;;12297286;28;20548;-87
2021/01/09 04:03:26;;;;;;;22.52;15.00;;;0.70;99.90;;;;;;12326390;28;20062;-87
2021/01/09 04:09:27;;;;;;;21.08;13.80;;;0.90;99.90;;;;;;12292670;28;20067;-87
2021/01/09 04:15:29;;;;;;;24.02;16.13;;;1.00;99.90;;;;;;12286316;28;20081;-87
2021/01/09 04:21:30;;;;;;;23.98;15.38;;;0.90;99.90;;;;;;12294724;28;20090;-87
2021/01/09 04:27:31;;;;;;;22.15;13.90;;;1.00;99.90;;;;;;12278415;28;20542;-87
2021/01/09 04:33:34;;;;;;;20.52;13.18;;;1.10;99.90;;;;;;12282071;28;20035;-87
2021/01/09 04:39:35;;;;;;;18.08;11.93;;;0.90;99.90;;;;;;12272227;28;20055;-87
2021/01/09 04:45:37;;;;;;;16.10;10.48;;;1.00;99.90;;;;;;12275748;28;20138;-88
2021/01/09 04:51:41;;;;;;;16.73;10.95;;;1.10;99.90;;;;;;12292947;28;20042;-87
2021/01/09 04:57:42;;;;;;;17.25;10.05;;;1.00;99.90;;;;;;12298441;28;20074;-87
2021/01/09 05:03:48;;;;;;;13.95;8.50;;;1.10;99.90;;;;;;12297088;28;20098;-88
2021/01/09 05:09:49;;;;;;;16.48;10.10;;;1.00;99.90;;;;;;12316082;28;20051;-88
2021/01/09 05:15:54;;;;;;;14.18;9.80;;;0.90;99.90;;;;;;12279198;28;20122;-87
2021/01/09 05:22:03;;;;;;;15.10;9.52;;;1.00;99.90;;;;;;12318347;28;20081;-87
2021/01/09 05:28:06;;;;;;;13.75;9.18;;;0.90;99.90;;;;;;12305521;28;20101;-87
2021/01/09 05:34:07;;;;;;;13.13;8.40;;;1.10;99.90;;;;;;12315666;28;20393;-87
2021/01/09 05:40:09;;;;;;;13.98;9.13;;;0.90;99.90;;;;;;12314512;28;20097;-87
2021/01/09 05:46:11;;;;;;;13.20;8.80;;;0.90;99.90;;;;;;12300827;28;20141;-87
2021/01/09 05:52:13;;;;;;;14.23;8.27;;;1.10;99.90;;;;;;12315886;28;20078;-88
2021/01/09 05:58:17;;;;;;;12.82;8.05;;;1.20;99.90;;;;;;12285232;28;20142;-87
2021/01/09 06:04:20;;;;;;;13.87;8.80;;;1.20;99.90;;;;;;12292971;28;20122;-87
2021/01/09 06:10:23;;;;;;;15.23;9.07;;;1.10;99.90;;;;;;12301382;28;20096;-88
2021/01/09 06:16:26;;;;;;;13.48;8.27;;;1.30;99.90;;;;;;12314713;28;20089;-88
2021/01/09 06:22:29;;;;;;;13.07;8.25;;;1.30;99.90;;;;;;12295729;28;20058;-88
2021/01/09 06:28:37;;;;;;;11.80;7.85;;;1.20;99.90;;;;;;12289458;28;20047;-87
2021/01/09 06:34:39;;;;;;;13.80;7.80;;;1.30;99.90;;;;;;12289739;28;20058;-88
2021/01/09 06:40:41;;;;;;;12.25;7.88;;;1.30;99.90;;;;;;12294939;28;20110;-88
2021/01/09 06:46:42;;;;;;;17.08;8.20;;;1.10;99.90;;;;;;12298820;28;20134;-89
2021/01/09 06:52:53;;;;;;;13.40;8.20;;;1.10;99.90;;;;;;12287745;28;20054;-88
2021/01/09 06:58:54;;;;;;;11.05;7.43;;;1.10;99.90;;;;;;12307487;28;20047;-88
2021/01/09 07:05:19;;;;;;;12.82;7.97;;;1.10;99.90;;;;;;12327289;28;20448;-88
2021/01/09 07:11:21;;;;;;;15.43;8.53;;;1.20;99.90;;;;;;12296238;28;20515;-88
2021/01/09 07:17:27;;;;;;;15.90;8.38;;;1.30;99.90;;;;;;12301071;28;20302;-88
2021/01/09 07:23:28;;;;;;;16.45;9.82;;;1.20;99.90;;;;;;12294608;28;20073;-88
2021/01/09 07:29:38;;;;;;;14.57;9.18;;;1.20;99.90;;;;;;12307088;28;20051;-88
2021/01/09 07:35:44;;;;;;;15.40;9.90;;;1.30;99.90;;;;;;12287510;28;20068;-88
2021/01/09 07:41:47;;;;;;;16.30;9.60;;;1.20;99.90;;;;;;12292611;28;20079;-88
2021/01/09 07:47:50;;;;;;;17.45;9.30;;;1.10;99.90;;;;;;12261816;28;20665;-88
2021/01/09 07:53:51;;;;;;;15.82;9.27;;;1.10;99.90;;;;;;12253865;28;20490;-88
2021/01/09 07:59:55;;;;;;;17.17;9.73;;;1.10;99.90;;;;;;12264973;28;20482;-88
2021/01/09 08:05:58;;;;;;;15.88;9.57;;;1.20;99.90;;;;;;12265226;28;20050;-88
2021/01/09 08:12:01;;;;;;;15.27;8.88;;;1.30;99.90;;;;;;12256127;28;20101;-88
2021/01/09 08:18:04;;;;;;;13.65;7.82;;;1.20;99.90;;;;;;12252079;28;20501;-88
2021/01/09 08:24:06;;;;;;;13.85;8.75;;;1.40;99.90;;;;;;12255260;28;20044;-88
2021/01/09 08:30:10;;;;;;;14.23;8.13;;;1.50;99.90;;;;;;12252155;28;20063;-88
2021/01/09 08:36:14;;;;;;;13.18;8.13;;;1.60;99.90;;;;;;12248704;28;20135;-88
2021/01/09 08:42:17;;;;;;;14.70;8.70;;;1.60;99.90;;;;;;12258369;28;20408;-88
2021/01/09 08:48:27;;;;;;;14.10;8.23;;;1.50;99.90;;;;;;12296378;28;20118;-88
2021/01/09 08:54:30;;;;;;;18.20;9.13;;;1.50;99.90;;;;;;12299762;28;20381;-88
2021/01/09 09:00:32;;;;;;;14.10;8.63;;;1.70;99.90;;;;;;12287470;28;20077;-87
2021/01/09 09:06:36;;;;;;;14.38;9.13;;;1.70;99.90;;;;;;12283437;28;20042;-88
2021/01/09 09:12:39;;;;;;;17.13;9.82;;;1.70;99.90;;;;;;12292595;28;20105;-88
2021/01/09 09:18:41;;;;;;;14.73;8.90;;;1.70;99.90;;;;;;12305151;28;20058;-88
2021/01/09 09:24:44;;;;;;;13.00;8.52;;;1.60;99.90;;;;;;12303177;28;20101;-87
2021/01/09 09:30:45;;;;;;;14.48;7.93;;;1.70;99.90;;;;;;12283766;28;20142;-88
2021/01/09 09:36:50;;;;;;;14.50;8.23;;;1.70;99.90;;;;;;12280327;28;20166;-87
2021/01/09 09:42:52;;;;;;;16.52;8.60;;;1.70;99.90;;;;;;12293897;28;20146;-88
2021/01/09 09:48:59;;;;;;;14.90;8.07;;;1.50;99.90;;;;;;12295255;28;20122;-87
2021/01/09 09:55:03;;;;;;;11.45;7.50;;;1.80;99.90;;;;;;12316048;28;20070;-88
2021/01/09 10:01:23;;;;;;;14.25;7.93;;;1.90;99.90;;;;;;12348027;28;20047;-88
2021/01/09 10:07:25;;;;;;;13.57;8.00;;;1.80;99.90;;;;;;12299938;28;20051;-88
2021/01/09 10:13:30;;;;;;;11.68;7.40;;;2.00;99.90;;;;;;12304248;28;20126;-88
2021/01/09 10:19:31;;;;;;;11.32;7.40;;;2.20;99.90;;;;;;12313118;28;21115;-88
2021/01/09 10:25:33;;;;;;;13.70;7.53;;;2.20;99.90;;;;;;12295604;28;20035;-88
2021/01/09 10:31:37;;;;;;;19.17;15.07;;;2.50;99.90;;;;;;12288659;28;20551;-88
2021/01/09 10:37:39;;;;;;;10.88;7.30;;;2.60;99.90;;;;;;12313922;28;20058;-87
2021/01/09 10:43:40;;;;;;;18.23;11.52;;;2.70;99.90;;;;;;12291783;28;20055;-87
2021/01/09 10:49:42;;;;;;;22.80;11.27;;;2.90;99.90;;;;;;12308986;28;20043;-89
2021/01/09 10:55:43;;;;;;;9.20;6.30;;;3.10;99.90;;;;;;12302430;28;20127;-88
2021/01/09 11:01:44;;;;;;;16.50;9.15;;;3.40;99.90;;;;;;12312177;28;20556;-87
2021/01/09 11:07:46;;;;;;;18.65;8.20;;;3.50;99.90;;;;;;12294055;28;20081;-88
2021/01/09 11:13:47;;;;;;;10.80;6.05;;;3.90;99.90;;;;;;12299387;28;20078;-87
2021/01/09 11:19:49;;;;;;;8.73;5.85;;;4.00;99.90;;;;;;12281223;28;20055;-88
2021/01/09 11:25:50;;;;;;;11.40;5.22;;;4.20;99.90;;;;;;12296790;28;20300;-88
2021/01/09 11:32:03;;;;;;;12.13;6.88;;;3.90;99.90;;;;;;12178520;28;20129;-88
2021/01/09 11:38:05;;;;;;;13.45;7.75;;;4.00;99.90;;;;;;12299141;28;20586;-88
2021/01/09 11:44:06;;;;;;;13.02;7.57;;;3.90;99.90;;;;;;12287460;28;20066;-87
2021/01/09 11:50:09;;;;;;;14.82;7.97;;;3.50;99.90;;;;;;12294741;28;20109;-88
2021/01/09 11:56:10;;;;;;;12.95;8.23;;;3.40;99.90;;;;;;12289792;28;20129;-88
2021/01/09 12:02:11;;;;;;;17.33;8.40;;;3.50;99.90;;;;;;12274123;28;20078;-88
2021/01/09 12:08:13;;;;;;;17.05;9.10;;;3.30;99.90;;;;;;12278628;28;20049;-87
2021/01/09 12:14:14;;;;;;;14.52;9.60;;;3.20;99.90;;;;;;12288396;28;20035;-87
2021/01/09 12:20:15;;;;;;;18.02;9.40;;;3.10;99.90;;;;;;12284199;28;20138;-88
2021/01/09 12:26:21;;;;;;;16.67;10.02;;;3.10;99.90;;;;;;12280869;28;20474;-87
2021/01/09 12:32:22;;;;;;;18.90;9.10;;;3.60;99.90;;;;;;12298376;28;20081;-88
2021/01/09 12:38:24;;;;;;;15.70;8.43;;;3.90;99.90;;;;;;12289207;28;20064;-88
2021/01/09 12:44:25;;;;;;;15.68;9.20;;;3.90;99.90;;;;;;12277061;28;20146;-87
2021/01/09 12:50:26;;;;;;;13.95;6.80;;;3.70;99.90;;;;;;12319786;28;20125;-88
2021/01/09 12:56:30;;;;;;;13.23;7.55;;;3.70;99.90;;;;;;12288429;28;20082;-86
2021/01/09 13:02:31;;;;;;;14.98;8.10;;;3.60;99.90;;;;;;12286272;28;20089;-87
2021/01/09 13:08:33;;;;;;;13.63;7.70;;;3.50;99.90;;;;;;12304792;28;20059;-86
2021/01/09 13:14:35;;;;;;;11.68;6.57;;;3.50;99.90;;;;;;12290581;28;20118;-87
2021/01/09 13:20:37;;;;;;;13.68;6.65;;;3.40;99.90;;;;;;12294856;28;20134;-86
2021/01/09 13:26:40;;;;;;;15.45;8.35;;;3.30;99.90;;;;;;12292122;28;20451;-85
2021/01/09 13:32:42;;;;;;;15.23;8.23;;;3.20;99.90;;;;;;12314742;28;20406;-86
2021/01/09 13:38:43;;;;;;;15.65;8.35;;;3.10;99.90;;;;;;12291216;28;20169;-86
2021/01/09 13:44:44;;;;;;;14.77;8.13;;;2.90;99.90;;;;;;12296786;28;20059;-87
2021/01/09 13:50:46;;;;;;;13.45;8.45;;;3.10;99.90;;;;;;12265008;28;20070;-86
2021/01/09 13:56:48;;;;;;;12.50;8.18;;;3.00;99.90;;;;;;12302144;28;20058;-87
2021/01/09 14:03:10;;;;;;;15.68;8.75;;;2.80;99.90;;;;;;12283280;28;20043;-86
2021/01/09 14:09:12;;;;;;;13.02;8.75;;;2.70;99.90;;;;;;12293079;28;20078;-86
2021/01/09 14:15:13;;;;;;;18.92;11.90;;;2.60;99.90;;;;;;12290560;28;20062;-86
2021/01/09 14:21:17;;;;;;;18.80;11.77;;;2.30;99.90;;;;;;12292274;28;20144;-86
2021/01/09 14:27:21;;;;;;;20.05;11.75;;;2.20;99.90;;;;;;12293783;28;20055;-86
2021/01/09 14:33:23;;;;;;;20.60;12.73;;;2.10;99.90;;;;;;12294782;28;20138;-86
2021/01/09 14:39:24;;;;;;;19.38;12.18;;;2.10;99.90;;;;;;12295205;28;20074;-86
2021/01/09 14:45:25;;;;;;;23.85;13.50;;;2.10;99.90;;;;;;12296963;28;20058;-86
2021/01/09 14:51:27;;;;;;;22.23;13.68;;;2.10;99.90;;;;;;12295031;28;20051;-86
2021/01/09 14:57:28;;;;;;;23.58;13.82;;;2.10;99.90;;;;;;12286694;28;20137;-87
2021/01/09 15:03:29;;;;;;;20.60;12.40;;;2.00;99.90;;;;;;12306144;28;20073;-87
2021/01/09 15:09:31;;;;;;;31.45;13.88;;;2.00;99.90;;;;;;12283345;28;20057;-86
2021/01/09 15:15:32;;;;;;;26.50;14.25;;;1.90;99.90;;;;;;12279397;28;20070;-87
2021/01/09 15:21:35;;;;;;;25.77;13.98;;;2.10;99.90;;;;;;12298168;28;20407;-87
2021/01/09 15:27:37;;;;;;;25.42;14.48;;;1.90;99.90;;;;;;12279068;28;20130;-87
2021/01/09 15:33:40;;;;;;;30.33;16.13;;;1.80;99.90;;;;;;12279141;28;20054;-87
2021/01/09 15:39:56;;;;;;;29.40;16.15;;;1.70;99.90;;;;;;12301629;28;20062;-87
2021/01/09 15:45:59;;;;;;;27.15;15.15;;;1.80;99.90;;;;;;12293432;28;20054;-87
2021/01/09 15:52:00;;;;;;;28.80;16.27;;;1.70;99.90;;;;;;12278752;28;20046;-87
2021/01/09 15:58:01;;;;;;;26.85;14.57;;;1.60;99.90;;;;;;12284825;28;20112;-87
2021/01/09 16:04:04;;;;;;;30.25;15.13;;;1.60;99.90;;;;;;12299201;28;20047;-87
2021/01/09 16:10:06;;;;;;;24.48;13.45;;;1.60;99.90;;;;;;12297359;28;20622;-86
2021/01/09 16:16:07;;;;;;;27.85;15.63;;;1.60;99.90;;;;;;12281404;28;20158;-87
2021/01/09 16:22:09;;;;;;;26.67;14.20;;;1.70;99.90;;;;;;12311282;28;20367;-88
2021/01/09 16:28:11;;;;;;;27.50;15.05;;;1.70;99.90;;;;;;12280561;28;20101;-86
2021/01/09 16:34:14;;;;;;;29.23;14.98;;;1.60;99.90;;;;;;12291403;28;20126;-86
2021/01/09 16:40:31;;;;;;;26.58;15.07;;;1.60;99.90;;;;;;12311865;28;20050;-88
2021/01/09 16:46:33;;;;;;;28.98;15.40;;;1.50;99.90;;;;;;12293589;28;20059;-87
2021/01/09 16:52:40;;;;;;;30.33;16.13;;;1.50;99.90;;;;;;12269777;28;20066;-87
2021/01/09 16:58:41;;;;;;;33.95;17.48;;;1.50;99.90;;;;;;12297817;28;20043;-87
2021/01/09 17:04:43;;;;;;;39.13;17.38;;;1.50;99.90;;;;;;12297062;28;20162;-86
2021/01/09 17:10:44;;;;;;;36.03;17.38;;;1.50;99.90;;;;;;12287821;28;20073;-86
2021/01/09 17:16:45;;;;;;;37.30;18.17;;;1.50;99.90;;;;;;12286790;28;20534;-87
2021/01/09 17:22:47;;;;;;;38.03;19.58;;;1.50;99.90;;;;;;12291165;28;20468;-86
2021/01/09 17:28:51;;;;;;;35.38;18.83;;;1.50;99.90;;;;;;12280851;28;20427;-86
2021/01/09 17:34:52;;;;;;;29.58;16.25;;;1.70;99.90;;;;;;12297242;28;20050;-88
2021/01/09 17:40:54;;;;;;;29.00;16.17;;;1.90;99.90;;;;;;12299295;28;20066;-87
2021/01/09 17:46:57;;;;;;;33.53;16.50;;;1.70;99.90;;;;;;12290701;28;20507;-86
2021/01/09 17:52:59;;;;;;;33.00;16.05;;;1.70;99.90;;;;;;12303786;28;20432;-86
2021/01/09 17:59:01;;;;;;;28.42;15.93;;;1.50;99.90;;;;;;12286736;28;20043;-87
2021/01/09 18:05:02;;;;;;;25.27;14.27;;;1.50;99.90;;;;;;12305932;28;20495;-86
2021/01/09 18:11:04;;;;;;;28.70;16.08;;;1.50;99.90;;;;;;12291721;28;20093;-87
2021/01/09 18:17:05;;;;;;;31.13;16.08;;;1.50;99.90;;;;;;12298721;28;20082;-87
2021/01/09 18:23:07;;;;;;;27.02;15.00;;;1.40;99.90;;;;;;12296220;28;20053;-87
2021/01/09 18:29:28;;;;;;;24.23;13.30;;;1.40;99.90;;;;;;12285392;28;20054;-87
2021/01/09 18:35:30;;;;;;;24.63;14.35;;;1.30;99.90;;;;;;12301261;28;20047;-86
2021/01/09 18:41:33;;;;;;;26.13;13.55;;;1.30;99.90;;;;;;12313686;28;20165;-87
2021/01/09 18:47:37;;;;;;;28.48;14.80;;;1.20;99.90;;;;;;12316263;28;20055;-86
2021/01/09 18:53:41;;;;;;;28.92;15.93;;;1.20;99.90;;;;;;12296366;28;20093;-87
2021/01/09 18:59:42;;;;;;;29.48;15.27;;;1.20;99.90;;;;;;12311362;28;20078;-86
2021/01/09 19:05:44;;;;;;;27.63;15.25;;;1.20;99.90;;;;;;12291654;28;20070;-87
2021/01/09 19:12:05;;;;;;;28.13;14.85;;;1.20;99.90;;;;;;12280887;28;20078;-87
2021/01/09 19:18:07;;;;;;;28.02;14.18;;;1.10;99.90;;;;;;12285317;28;20097;-86
2021/01/09 19:24:09;;;;;;;30.90;15.50;;;1.10;99.90;;;;;;12289407;28;20138;-87
2021/01/09 19:30:11;;;;;;;29.73;15.02;;;1.10;99.90;;;;;;12288608;28;20141;-87
2021/01/09 19:36:19;;;;;;;27.25;14.88;;;1.20;99.90;;;;;;12297980;28;20058;-87
2021/01/09 19:42:20;;;;;;;29.67;14.45;;;1.10;99.90;;;;;;12279916;28;20094;-86
2021/01/09 19:48:22;;;;;;;28.63;14.57;;;1.10;99.90;;;;;;12301891;28;20357;-87
2021/01/09 19:54:23;;;;;;;31.75;14.25;;;1.00;99.90;;;;;;12313506;28;20043;-88
2021/01/09 20:00:25;;;;;;;33.90;15.98;;;1.00;99.90;;;;;;12305688;28;20439;-87
2021/01/09 20:06:27;;;;;;;35.65;16.60;;;1.00;99.90;;;;;;12290595;28;20054;-87
2021/01/09 20:12:28;;;;;;;29.27;16.00;;;0.90;99.90;;;;;;12286862;28;20559;-86
2021/01/09 20:18:30;;;;;;;35.08;16.70;;;0.80;99.90;;;;;;12289595;28;20085;-86
2021/01/09 20:24:31;;;;;;;36.03;16.95;;;0.80;99.90;;;;;;12293090;28;20046;-87
2021/01/09 20:30:32;;;;;;;33.42;15.55;;;0.80;99.90;;;;;;12292874;28;20047;-86
2021/01/09 20:36:37;;;;;;;34.65;15.98;;;0.70;99.90;;;;;;12274314;28;20436;-87
2021/01/09 20:42:38;;;;;;;39.17;17.20;;;0.80;99.90;;;;;;12280835;28;20689;-86
2021/01/09 20:48:40;;;;;;;38.42;16.85;;;0.80;99.90;;;;;;12297738;28;20053;-86
2021/01/09 20:54:41;;;;;;;43.97;18.65;;;0.90;99.90;;;;;;12317655;28;20043;-87
2021/01/09 21:00:43;;;;;;;38.83;17.48;;;0.90;99.90;;;;;;12293738;28;20090;-86
2021/01/09 21:06:53;;;;;;;38.35;17.98;;;1.00;99.90;;;;;;12284603;28;20043;-86
2021/01/09 21:12:54;;;;;;;39.15;16.73;;;1.00;99.90;;;;;;12301499;28;20527;-86
2021/01/09 21:18:56;;;;;;;38.63;17.13;;;1.00;99.90;;;;;;12287862;28;20221;-86
2021/01/09 21:24:57;;;;;;;34.13;16.30;;;1.00;99.90;;;;;;12292002;28;20387;-87
2021/01/09 21:31:00;;;;;;;35.72;16.38;;;1.10;99.90;;;;;;12283407;28;20619;-86
2021/01/09 21:37:02;;;;;;;38.45;17.67;;;1.10;99.90;;;;;;12287025;28;20085;-86
2021/01/09 21:43:03;;;;;;;41.03;16.90;;;1.10;99.90;;;;;;12292679;28;20083;-86
2021/01/09 21:49:04;;;;;;;32.47;15.10;;;1.10;99.90;;;;;;12297806;28;20069;-86
2021/01/09 21:55:06;;;;;;;36.20;15.82;;;1.20;99.90;;;;;;12308481;28;20131;-87
2021/01/09 22:01:14;;;;;;;33.40;15.73;;;1.30;99.90;;;;;;12317598;28;20117;-86
2021/01/09 22:07:15;;;;;;;36.85;16.80;;;1.30;99.90;;;;;;12283692;28;20092;-86
2021/01/09 22:13:17;;;;;;;37.08;16.70;;;1.30;99.90;;;;;;12294518;28;20058;-86
2021/01/09 22:19:18;;;;;;;32.22;15.68;;;1.20;99.90;;;;;;12286215;28;20085;-86
2021/01/09 22:25:22;;;;;;;35.80;17.15;;;1.20;99.90;;;;;;12288502;28;20083;-86
2021/01/09 22:31:23;;;;;;;36.97;17.17;;;1.20;99.90;;;;;;12298021;28;20051;-85
2021/01/09 22:37:25;;;;;;;42.53;17.08;;;1.20;99.90;;;;;;12291275;28;20302;-86
2021/01/09 22:43:26;;;;;;;39.20;17.08;;;1.20;99.90;;;;;;12296063;28;20138;-86
2021/01/09 22:49:28;;;;;;;47.35;19.08;;;1.10;99.90;;;;;;12297897;28;20059;-86
2021/01/09 22:55:29;;;;;;;48.30;18.38;;;1.10;99.90;;;;;;12305723;28;20136;-86
2021/01/09 23:01:30;;;;;;;58.67;19.23;;;1.10;99.90;;;;;;12287660;28;20476;-86
2021/01/09 23:07:31;;;;;;;54.78;18.25;;;1.10;99.90;;;;;;12295884;28;20451;-86
2021/01/09 23:13:33;;;;;;;53.88;18.63;;;1.00;99.90;;;;;;12313692;28;20050;-87
2021/01/09 23:19:35;;;;;;;61.03;21.45;;;1.00;99.90;;;;;;12288081;28;20129;-85
2021/01/09 23:25:45;;;;;;;64.45;20.10;;;0.90;99.90;;;;;;12292858;28;20058;-86
2021/01/09 23:31:47;;;;;;;70.13;24.60;;;0.90;99.90;;;;;;12289579;28;20038;-87
2021/01/09 23:37:50;;;;;;;83.78;26.95;;;0.90;99.90;;;;;;12312573;28;20059;-86
2021/01/09 23:43:51;;;;;;;82.60;26.77;;;1.00;99.90;;;;;;12287221;28;20569;-87
2021/01/09 23:49:52;;;;;;;92.75;29.45;;;0.90;99.90;;;;;;12286883;28;20776;-86
2021/01/09 23:55:54;;;;;;;107.32;32.25;;;0.90;99.90;;;;;;12300697;28;21111;-86
